Time;durP1;ratioP1;P1;durP2;ratioP2;P2;SDS_P1;SDS_P2;PMS_P1;PMS_P2;Temp;Humidity;BMP_temperature;BMP_pressure;BME280_temperature;BME280_humidity;BME280_pressure;Samples;Min_cycle;Max_cycle;Signal;HPM_P1;HPM_P2
2023/01/08 00:00:12;;;;;;;54.63;26.17;;;4.40;95.60;;;4.20;61.54;95461.38;4975820;28;20450;-56
2023/01/08 00:02:41;;;;;;;66.50;29.63;;;4.40;95.70;;;4.18;61.15;95462.38;4976811;28;21003;-57
2023/01/08 00:05:10;;;;;;;60.83;26.60;;;4.30;95.60;;;4.13;61.47;95468.69;4978225;28;20454;-57
2023/01/08 00:07:37;;;;;;;49.27;23.57;;;4.30;95.50;;;4.12;61.67;95471.38;4976627;28;21074;-56
2023/01/08 00:10:05;;;;;;;46.97;24.37;;;4.30;95.80;;;4.08;61.76;95473.31;4978113;28;20564;-54
2023/01/08 00:12:33;;;;;;;58.43;24.20;;;4.30;95.80;;;4.05;61.75;95473.50;4977674;28;20487;-56
2023/01/08 00:15:00;;;;;;;54.13;21.97;;;4.20;95.70;;;4.00;61.62;95461.66;4984934;28;20546;-56
2023/01/08 00:17:28;;;;;;;34.53;19.97;;;4.20;95.70;;;4.00;61.71;95465.09;4980052;28;20581;-55
2023/01/08 00:19:56;;;;;;;41.57;19.53;;;4.20;95.80;;;3.97;62.01;95462.66;4980194;28;20557;-55
2023/01/08 00:22:23;;;;;;;49.20;22.27;;;4.20;96.00;;;3.98;61.72;95464.31;4984295;28;20482;-56
2023/01/08 00:24:51;;;;;;;50.83;24.80;;;4.10;95.90;;;3.98;62.09;95461.72;4977246;28;20462;-56
2023/01/08 00:27:18;;;;;;;44.37;21.10;;;4.10;96.10;;;3.97;62.41;95464.41;4984285;28;20479;-58
2023/01/08 00:29:45;;;;;;;42.43;21.33;;;4.10;96.20;;;3.94;61.75;95461.06;4980094;28;20463;-57
2023/01/08 00:32:13;;;;;;;33.83;18.93;;;4.10;96.10;;;3.93;62.11;95456.81;4981927;28;21509;-56
2023/01/08 00:34:40;;;;;;;41.03;20.27;;;4.10;96.50;;;3.91;61.87;95466.44;4983760;28;20458;-56
2023/01/08 00:37:09;;;;;;;38.33;21.47;;;4.10;96.20;;;3.87;62.00;95456.28;4983186;28;21026;-57
2023/01/08 00:39:36;;;;;;;42.33;20.70;;;4.10;96.00;;;3.87;61.83;95459.75;4979415;28;20539;-59
2023/01/08 00:42:03;;;;;;;36.00;17.60;;;4.00;96.00;;;3.87;61.66;95467.56;4979733;28;20967;-56
2023/01/08 00:44:31;;;;;;;32.90;17.70;;;4.00;96.00;;;3.86;62.22;95462.44;4980007;28;20467;-57
2023/01/08 00:46:58;;;;;;;35.00;19.07;;;4.10;96.10;;;3.84;61.94;95462.53;4979448;28;20490;-54
2023/01/08 00:49:26;;;;;;;39.47;18.30;;;4.00;96.30;;;3.85;61.70;95469.38;4978924;28;20546;-56
2023/01/08 00:51:53;;;;;;;35.13;17.00;;;4.00;96.10;;;3.84;62.16;95464.25;4983386;28;20454;-55
2023/01/08 00:54:21;;;;;;;33.63;17.70;;;4.00;96.20;;;3.83;62.20;95463.44;4981953;28;20455;-56
2023/01/08 00:56:49;;;;;;;36.07;17.57;;;4.00;96.20;;;3.83;61.72;95470.41;4984325;28;20505;-56
2023/01/08 00:59:16;;;;;;;44.33;18.47;;;4.00;96.20;;;3.80;62.13;95471.41;4979091;28;20987;-57
2023/01/08 01:01:43;;;;;;;33.07;17.20;;;4.00;96.30;;;3.79;62.32;95467.13;4981939;28;20964;-55
2023/01/08 01:04:10;;;;;;;32.20;17.10;;;4.00;96.30;;;3.77;62.31;95469.81;4976721;28;20475;-55
2023/01/08 01:06:38;;;;;;;37.57;15.50;;;4.00;96.10;;;3.76;62.02;95470.75;4983195;28;20466;-57
2023/01/08 01:09:05;;;;;;;36.17;16.60;;;3.90;96.20;;;3.74;61.66;95469.13;4981497;28;20479;-57
2023/01/08 01:11:33;;;;;;;42.37;17.00;;;3.90;96.20;;;3.73;62.30;95464.84;4978573;28;20462;-56
2023/01/08 01:14:01;;;;;;;35.67;18.00;;;3.90;96.20;;;3.69;61.99;95464.19;4981949;28;20482;-56
2023/01/08 01:16:29;;;;;;;31.07;15.73;;;3.90;96.30;;;3.66;62.26;95464.34;4980415;28;20455;-56
2023/01/08 01:18:57;;;;;;;39.67;18.77;;;3.90;96.50;;;3.66;62.06;95461.75;4979379;28;20541;-56
2023/01/08 01:21:26;;;;;;;43.67;17.67;;;3.90;96.50;;;3.65;62.35;95462.66;4982414;28;20467;-56
2023/01/08 01:23:54;;;;;;;30.43;18.00;;;3.80;96.50;;;3.64;62.97;95466.22;4981366;28;20807;-56
2023/01/08 01:26:22;;;;;;;36.17;18.50;;;3.80;96.60;;;3.62;62.30;95457.63;4980733;28;20995;-56
2023/01/08 01:28:51;;;;;;;34.37;16.87;;;3.80;96.60;;;3.61;62.82;95468.09;4979285;28;20498;-58
2023/01/08 01:31:19;;;;;;;39.63;18.17;;;3.80;96.50;;;3.57;62.69;95463.06;4978073;28;20470;-56
2023/01/08 01:33:46;;;;;;;50.30;18.33;;;3.80;96.50;;;3.55;62.71;95459.72;4978687;28;20479;-56
2023/01/08 01:36:14;;;;;;;33.13;18.93;;;3.80;96.60;;;3.54;62.86;95457.22;4982295;28;20518;-57
2023/01/08 01:38:44;;;;;;;39.63;19.83;;;3.70;96.60;;;3.51;62.70;95452.16;4978340;28;20526;-56
2023/01/08 01:41:18;;;;;;;44.60;19.07;;;3.70;96.90;;;3.50;63.15;95453.09;4977369;28;20574;-57
2023/01/08 01:43:46;;;;;;;37.70;17.67;;;3.70;96.90;;;3.50;62.28;95446.13;4980973;28;20571;-56
2023/01/08 01:46:37;;;;;;;36.57;19.30;;;3.70;96.70;;;3.50;62.76;95448.75;4983429;28;20459;-57
2023/01/08 01:49:08;;;;;;;40.93;19.53;;;3.70;96.60;;;3.49;62.42;95444.44;4983389;28;20557;-56
2023/01/08 01:51:35;;;;;;;43.77;18.93;;;3.70;96.60;;;3.47;62.76;95440.25;4981860;28;20440;-56
2023/01/08 01:54:04;;;;;;;36.83;20.40;;;3.70;96.70;;;3.46;62.37;95444.63;4975964;28;20467;-57
2023/01/08 01:56:32;;;;;;;42.63;20.87;;;3.60;96.70;;;3.45;62.50;95442.94;4976798;28;20459;-57
2023/01/08 01:58:59;;;;;;;39.77;20.03;;;3.70;96.70;;;3.41;62.69;95439.66;4984977;28;20501;-55
2023/01/08 02:01:26;;;;;;;41.07;21.70;;;3.60;96.80;;;3.39;62.48;95436.31;4975911;28;20452;-55
2023/01/08 02:03:55;;;;;;;39.27;20.10;;;3.60;96.70;;;3.39;62.35;95443.25;4978495;28;20490;-55
2023/01/08 02:06:32;;;;;;;47.57;23.27;;;3.60;96.70;;;3.37;62.50;95445.09;4978780;28;20446;-57
2023/01/08 02:09:02;;;;;;;62.33;21.27;;;3.60;97.00;;;3.37;62.51;95437.31;4977425;28;20478;-56
2023/01/08 02:11:37;;;;;;;55.23;22.00;;;3.60;96.90;;;3.37;63.12;95440.75;4975207;28;20546;-57
2023/01/08 02:14:08;;;;;;;48.57;28.17;;;3.60;96.80;;;3.36;62.72;95435.63;4977128;28;20531;-56
2023/01/08 02:16:42;;;;;;;68.43;25.27;;;3.60;97.00;;;3.33;62.97;95434.03;4974030;28;20451;-55
2023/01/08 02:19:22;;;;;;;90.23;37.53;;;3.60;97.00;;;3.35;62.54;95428.75;4981568;28;20466;-55
2023/01/08 02:22:00;;;;;;;103.93;41.80;;;3.60;97.10;;;3.33;62.86;95425.38;4978664;28;20457;-55
2023/01/08 02:24:38;;;;;;;41.90;21.40;;;3.50;96.80;;;3.31;62.21;95427.25;4974809;28;20521;-56
2023/01/08 02:27:07;;;;;;;27.50;17.50;;;3.50;96.90;;;3.29;62.66;95423.88;4981890;28;20957;-58
2023/01/08 02:29:34;;;;;;;30.53;15.83;;;3.50;96.90;;;3.28;62.77;95430.00;4976833;28;20486;-56
2023/01/08 02:32:02;;;;;;;35.10;17.87;;;3.50;97.10;;;3.26;62.53;95431.84;4979851;28;20462;-57
2023/01/08 02:34:30;;;;;;;36.07;18.17;;;3.40;97.00;;;3.26;63.13;95427.47;4978326;28;20881;-57
2023/01/08 02:36:58;;;;;;;34.40;16.40;;;3.40;96.70;;;3.24;62.37;95418.94;4979214;28;20494;-56
2023/01/08 02:39:43;;;;;;;29.13;15.17;;;3.40;96.70;;;3.22;62.99;95416.41;4973664;28;20456;-57
2023/01/08 02:42:15;;;;;;;28.47;16.37;;;3.40;96.80;;;3.21;62.44;95413.91;4971933;28;20451;-57
2023/01/08 02:44:54;;;;;;;27.60;14.47;;;3.40;96.80;;;3.20;63.01;95420.84;4974250;28;21399;-56
2023/01/08 02:47:26;;;;;;;30.77;15.33;;;3.40;96.80;;;3.19;62.25;95405.31;4980045;28;20842;-57
2023/01/08 02:49:59;;;;;;;25.53;15.10;;;3.40;96.80;;;3.18;62.91;95406.25;4977780;28;20477;-56
2023/01/08 02:52:27;;;;;;;32.87;14.67;;;3.40;96.80;;;3.17;62.94;95418.41;4982924;28;21090;-58
2023/01/08 02:54:54;;;;;;;29.63;14.90;;;3.40;97.00;;;3.16;62.37;95416.75;4979604;28;20558;-56
2023/01/08 02:57:23;;;;;;;39.80;15.00;;;3.40;96.90;;;3.16;62.94;95411.53;4975815;28;20550;-55
2023/01/08 02:59:50;;;;;;;27.73;14.63;;;3.40;96.80;;;3.14;62.87;95415.97;4978525;28;20518;-56
2023/01/08 03:02:17;;;;;;;30.20;16.23;;;3.30;96.90;;;3.13;62.94;95414.31;4977247;28;20475;-57
2023/01/08 03:04:52;;;;;;;25.77;14.93;;;3.30;96.80;;;3.10;62.86;95416.22;4978787;28;20474;-61
2023/01/08 03:07:19;;;;;;;35.07;15.73;;;3.30;96.90;;;3.08;63.16;95421.47;4976787;28;20825;-55
2023/01/08 03:09:46;;;;;;;26.63;14.87;;;3.30;96.80;;;3.06;62.76;95420.72;4980670;28;20524;-57
2023/01/08 03:12:18;;;;;;;29.60;15.97;;;3.30;96.90;;;3.06;62.30;95423.34;4980006;28;20482;-56
2023/01/08 03:14:50;;;;;;;27.87;14.53;;;3.30;97.00;;;3.05;62.69;95419.03;4977181;28;20601;-55
2023/01/08 03:17:20;;;;;;;34.63;16.33;;;3.30;96.90;;;3.05;62.51;95427.69;4973190;28;20490;-55
2023/01/08 03:19:50;;;;;;;27.80;15.70;;;3.20;96.90;;;3.03;62.69;95426.09;4975377;28;20469;-56
2023/01/08 03:22:18;;;;;;;24.00;14.70;;;3.20;97.00;;;3.01;63.17;95427.94;4979907;28;20496;-55
2023/01/08 03:24:47;;;;;;;32.13;15.57;;;3.20;96.80;;;2.99;63.36;95430.63;4978395;28;20855;-55
2023/01/08 03:27:16;;;;;;;33.00;16.30;;;3.20;97.10;;;2.97;62.54;95426.41;4976856;28;20914;-57
2023/01/08 03:29:43;;;;;;;24.67;15.43;;;3.20;97.00;;;2.95;63.42;95423.06;4976459;28;20464;-55
2023/01/08 03:32:15;;;;;;;26.47;14.97;;;3.20;96.90;;;2.93;63.33;95417.09;4976390;28;20447;-57
2023/01/08 03:34:43;;;;;;;48.63;18.50;;;3.10;97.20;;;2.91;63.33;95427.56;4977184;28;20826;-55
2023/01/08 03:37:11;;;;;;;40.93;17.57;;;3.10;97.20;;;2.90;62.72;95422.44;4978070;28;20462;-57
2023/01/08 03:39:43;;;;;;;34.83;16.70;;;3.10;97.20;;;2.89;63.25;95423.38;4976421;28;20466;-54
2023/01/08 03:42:12;;;;;;;34.43;13.13;;;3.10;97.10;;;2.88;62.46;95425.13;4980101;28;20553;-56
2023/01/08 03:44:39;;;;;;;34.57;16.00;;;3.10;97.20;;;2.87;62.51;95418.25;4975117;28;20967;-54
2023/01/08 03:47:06;;;;;;;31.07;16.70;;;3.00;97.10;;;2.85;62.86;95415.75;4979881;28;20447;-56
2023/01/08 03:49:36;;;;;;;21.03;14.83;;;3.10;97.20;;;2.84;62.60;95415.81;4980085;28;20466;-56
2023/01/08 03:52:03;;;;;;;32.40;16.10;;;3.10;97.20;;;2.82;63.00;95413.31;4980769;28;20541;-56
2023/01/08 03:54:32;;;;;;;30.93;14.93;;;3.00;97.10;;;2.81;62.55;95411.63;4980715;28;20544;-56
2023/01/08 03:56:59;;;;;;;29.23;13.77;;;3.00;97.10;;;2.79;62.46;95418.66;4980435;28;20453;-56
2023/01/08 03:59:26;;;;;;;28.03;14.70;;;3.00;96.80;;;2.76;62.25;95418.81;4981140;28;20497;-57
2023/01/08 04:01:54;;;;;;;40.27;15.73;;;3.00;97.00;;;2.73;62.96;95411.19;4985236;28;20842;-57
2023/01/08 04:04:21;;;;;;;31.00;16.47;;;3.00;97.10;;;2.74;63.46;95414.59;4980528;28;20602;-57
2023/01/08 04:06:51;;;;;;;32.23;16.63;;;3.00;97.10;;;2.74;62.58;95414.59;4983677;28;20976;-56
2023/01/08 04:09:19;;;;;;;36.13;17.93;;;2.90;97.10;;;2.71;62.80;95418.19;4979822;28;20550;-55
2023/01/08 04:11:46;;;;;;;37.60;17.50;;;3.00;97.10;;;2.70;62.54;95413.94;4980054;28;20482;-56
2023/01/08 04:14:13;;;;;;;34.90;17.33;;;2.90;97.10;;;2.69;63.00;95420.03;4985262;28;20504;-58
2023/01/08 04:16:41;;;;;;;33.20;18.50;;;2.90;97.10;;;2.68;63.29;95411.41;4980156;28;20474;-56
2023/01/08 04:19:08;;;;;;;35.90;18.40;;;2.90;97.20;;;2.69;63.61;95422.63;4980505;28;20510;-57
2023/01/08 04:21:35;;;;;;;31.43;16.67;;;2.90;97.20;;;2.68;63.44;95421.81;4980301;28;20845;-55
2023/01/08 04:24:04;;;;;;;42.37;19.70;;;2.90;97.40;;;2.67;63.63;95420.13;4981038;28;20478;-53
2023/01/08 04:26:31;;;;;;;53.17;18.10;;;2.90;97.50;;;2.64;62.99;95420.28;4979360;28;20467;-54
2023/01/08 04:28:58;;;;;;;37.30;19.17;;;2.90;97.20;;;2.63;63.82;95417.75;4982605;28;20483;-57
2023/01/08 04:31:26;;;;;;;32.03;17.30;;;2.90;97.40;;;2.63;63.04;95422.94;4979722;28;20463;-56
2023/01/08 04:33:53;;;;;;;34.90;15.57;;;2.90;97.20;;;2.62;63.08;95416.09;4985439;28;20483;-54
2023/01/08 04:36:20;;;;;;;28.80;17.27;;;2.80;97.30;;;2.62;63.50;95423.88;4983441;28;20459;-57
2023/01/08 04:38:47;;;;;;;38.90;18.40;;;2.80;97.10;;;2.62;63.48;95423.88;4981026;28;21156;-57
2023/01/08 04:41:17;;;;;;;34.03;17.37;;;2.80;97.30;;;2.61;62.84;95419.59;4980453;28;20463;-56
2023/01/08 04:43:44;;;;;;;40.00;17.77;;;2.80;97.40;;;2.61;63.74;95420.44;4979761;28;20490;-55
2023/01/08 04:46:12;;;;;;;35.10;18.37;;;2.80;97.30;;;2.60;63.68;95423.09;4981482;28;20474;-57
2023/01/08 04:48:39;;;;;;;38.30;18.90;;;2.80;97.50;;;2.59;63.67;95422.28;4983079;28;20899;-56
2023/01/08 04:51:07;;;;;;;40.20;19.07;;;2.80;97.30;;;2.57;62.86;95420.66;4982636;28;20485;-57
2023/01/08 04:53:36;;;;;;;45.80;19.57;;;2.80;97.20;;;2.55;63.20;95425.09;4980926;28;20485;-61
2023/01/08 04:56:04;;;;;;;31.17;16.10;;;2.80;97.40;;;2.55;62.80;95431.13;4978661;28;20465;-57
2023/01/08 04:58:33;;;;;;;33.47;15.03;;;2.80;97.40;;;2.54;63.59;95426.00;4979459;28;20517;-57
2023/01/08 05:01:00;;;;;;;31.23;14.43;;;2.80;97.60;;;2.51;63.30;95427.84;4983837;28;20474;-56
2023/01/08 05:03:28;;;;;;;22.17;14.73;;;2.70;97.50;;;2.51;63.70;95432.22;4981077;28;20536;-55
2023/01/08 05:05:55;;;;;;;25.27;13.70;;;2.70;97.60;;;2.51;63.84;95432.22;4980837;28;20459;-58
2023/01/08 05:08:22;;;;;;;30.27;14.73;;;2.70;97.60;;;2.51;63.92;95437.41;4981514;28;20492;-58
2023/01/08 05:10:49;;;;;;;40.10;17.50;;;2.70;97.60;;;2.49;63.49;95432.28;4978590;28;20466;-55
2023/01/08 05:13:17;;;;;;;39.67;19.23;;;2.80;97.50;;;2.48;62.85;95430.59;4981601;28;20477;-57
2023/01/08 05:15:45;;;;;;;37.33;19.70;;;2.70;97.20;;;2.44;63.21;95436.84;4981604;28;20482;-57
2023/01/08 05:18:12;;;;;;;47.13;21.10;;;2.70;97.40;;;2.36;64.26;95431.22;4977352;28;20495;-57
2023/01/08 05:20:40;;;;;;;42.50;20.77;;;2.60;97.50;;;2.31;63.37;95430.63;4979089;28;20470;-56
2023/01/08 05:23:07;;;;;;;44.60;18.93;;;2.60;97.60;;;2.26;64.14;95427.38;4976894;28;20880;-58
2023/01/08 05:25:35;;;;;;;51.37;22.73;;;2.60;97.80;;;2.22;63.74;95428.47;4982359;28;20475;-57
2023/01/08 05:28:02;;;;;;;45.27;20.47;;;2.50;97.70;;;2.23;63.94;95425.81;4986439;28;20478;-57
2023/01/08 05:30:29;;;;;;;57.87;20.97;;;2.50;98.00;;;2.21;64.66;95426.78;4980703;28;20466;-58
2023/01/08 05:32:58;;;;;;;33.20;19.33;;;2.50;98.30;;;2.22;64.37;95428.47;4978211;28;20928;-59
2023/01/08 05:35:25;;;;;;;51.27;20.00;;;2.50;98.10;;;2.22;64.84;95436.25;4978789;28;20535;-57
2023/01/08 05:37:52;;;;;;;37.30;18.50;;;2.50;98.20;;;2.22;63.46;95431.91;4980560;28;20888;-57
2023/01/08 05:40:20;;;;;;;47.07;20.13;;;2.50;98.20;;;2.23;63.71;95433.59;4979140;28;20815;-57
2023/01/08 05:42:47;;;;;;;36.80;20.57;;;2.40;98.10;;;2.24;64.65;95437.00;4981348;28;20495;-54
2023/01/08 05:45:15;;;;;;;43.27;20.17;;;2.50;98.10;;;2.24;64.07;95437.84;4982399;28;20462;-57
2023/01/08 05:47:42;;;;;;;42.57;20.37;;;2.50;98.10;;;2.26;64.91;95435.16;4978248;28;20487;-55
2023/01/08 05:50:14;;;;;;;41.70;19.80;;;2.50;98.10;;;2.27;63.78;95442.06;4979998;28;20483;-56
2023/01/08 05:52:42;;;;;;;44.63;20.87;;;2.50;98.20;;;2.26;63.71;95443.81;4982362;28;20479;-57
2023/01/08 05:55:10;;;;;;;41.07;21.20;;;2.50;98.00;;;2.27;64.50;95447.25;4982526;28;20478;-54
2023/01/08 05:57:37;;;;;;;41.17;21.93;;;2.50;98.10;;;2.27;64.33;95436.84;4982145;28;21029;-58
2023/01/08 06:00:06;;;;;;;44.27;23.30;;;2.50;98.00;;;2.26;63.78;95443.81;4976772;28;20548;-56
2023/01/08 06:02:34;;;;;;;39.20;20.80;;;2.50;98.10;;;2.27;63.45;95436.84;4981610;28;20548;-57
2023/01/08 06:05:01;;;;;;;41.97;21.20;;;2.50;97.90;;;2.26;64.02;95446.41;4976572;28;20458;-58
2023/01/08 06:07:30;;;;;;;43.20;20.30;;;2.50;98.00;;;2.26;63.97;95443.81;4982526;28;20490;-57
2023/01/08 06:09:57;;;;;;;38.60;18.40;;;2.50;98.20;;;2.27;64.49;95447.25;4978338;28;20526;-55
2023/01/08 06:12:25;;;;;;;31.77;18.50;;;2.50;97.90;;;2.25;64.12;95443.88;4976966;28;20555;-55
2023/01/08 06:14:52;;;;;;;41.47;19.67;;;2.50;97.90;;;2.30;64.12;95441.91;4982650;28;20528;-57
2023/01/08 06:17:19;;;;;;;45.23;19.20;;;2.60;97.90;;;2.30;63.87;95445.31;4979185;28;20589;-57
2023/01/08 06:19:47;;;;;;;46.47;21.30;;;2.50;97.90;;;2.48;63.68;95446.19;4981483;28;21041;-56
2023/01/08 06:22:14;;;;;;;42.83;21.07;;;2.70;98.10;;;2.74;63.89;95444.00;4978299;28;20483;-57
2023/01/08 06:24:43;;;;;;;51.77;22.20;;;2.90;98.00;;;3.14;62.85;95454.13;4981234;28;21030;-57
2023/01/08 06:27:10;;;;;;;40.97;18.33;;;3.30;97.80;;;3.53;62.05;95452.91;4982574;28;20535;-57
2023/01/08 06:29:37;;;;;;;35.90;17.40;;;3.70;97.40;;;3.97;61.36;95454.88;4977551;28;20855;-58
2023/01/08 06:32:05;;;;;;;31.10;17.07;;;4.10;96.90;;;4.42;60.65;95447.16;4979994;28;20458;-55
2023/01/08 06:34:32;;;;;;;35.23;17.57;;;4.60;96.40;;;4.87;59.99;95453.22;4980094;28;20471;-57
2023/01/08 06:36:59;;;;;;;35.10;18.53;;;5.00;95.70;;;5.33;59.20;95457.41;4972371;28;20459;-58
2023/01/08 06:39:27;;;;;;;35.53;18.63;;;5.50;95.30;;;5.80;58.59;95456.28;4978191;28;20502;-55
2023/01/08 06:41:56;;;;;;;49.73;20.40;;;5.90;94.60;;;6.30;57.56;95456.63;4976583;28;20467;-57
2023/01/08 06:44:24;;;;;;;43.60;18.47;;;6.50;93.80;;;6.83;56.61;95464.47;4983816;28;20561;-57
2023/01/08 06:46:51;;;;;;;35.90;17.73;;;7.00;93.10;;;7.29;55.62;95463.16;4977649;28;20534;-56
2023/01/08 06:49:18;;;;;;;41.60;19.47;;;7.50;92.30;;;7.74;54.71;95460.91;4980312;28;20528;-55
2023/01/08 06:51:46;;;;;;;52.10;19.40;;;7.90;91.40;;;8.15;54.43;95466.75;4980552;28;20458;-57
2023/01/08 06:54:13;;;;;;;52.37;24.07;;;8.40;90.70;;;8.56;53.58;95455.94;4977057;28;20485;-57
2023/01/08 06:56:40;;;;;;;46.37;24.33;;;8.80;89.70;;;9.02;52.84;95458.72;4974689;28;20459;-56
2023/01/08 06:59:09;;;;;;;55.07;26.97;;;9.30;87.80;;;9.48;51.38;95463.06;4980064;28;20494;-56
2023/01/08 07:01:36;;;;;;;66.47;31.27;;;9.80;85.20;;;9.92;50.75;95466.66;4975301;28;20491;-57
2023/01/08 07:04:03;;;;;;;85.27;38.07;;;10.30;82.20;;;10.37;49.88;95466.59;4980609;28;20490;-54
2023/01/08 07:06:31;;;;;;;88.93;44.67;;;10.70;79.80;;;10.79;49.36;95471.09;4979019;28;20486;-56
2023/01/08 07:08:58;;;;;;;83.00;43.53;;;11.10;78.80;;;11.15;48.22;95468.19;4980361;28;20474;-56
2023/01/08 07:11:25;;;;;;;94.07;43.70;;;11.50;75.90;;;11.47;47.49;95478.63;4979119;28;20463;-58
2023/01/08 07:13:53;;;;;;;88.80;41.83;;;11.80;73.90;;;11.78;46.79;95476.84;4984420;28;20486;-55
2023/01/08 07:16:21;;;;;;;83.07;39.80;;;12.10;72.30;;;12.06;46.56;95471.84;4984749;28;20473;-56
2023/01/08 07:18:49;;;;;;;76.07;37.80;;;12.40;70.90;;;12.35;45.59;95482.47;4980579;28;20497;-55
2023/01/08 07:21:16;;;;;;;95.53;40.27;;;12.70;69.60;;;12.65;44.74;95466.69;4982092;28;20448;-55
2023/01/08 07:23:46;;;;;;;73.00;34.77;;;13.00;67.30;;;12.98;44.24;95475.16;4979787;28;20473;-58
2023/01/08 07:26:13;;;;;;;68.77;33.47;;;13.30;66.20;;;13.31;43.67;95473.03;4976951;28;20553;-56
2023/01/08 07:28:40;;;;;;;63.13;30.97;;;13.70;65.10;;;13.61;42.96;95474.69;4982308;28;20544;-59
2023/01/08 07:31:07;;;;;;;50.93;28.10;;;14.00;61.70;;;13.86;42.25;95472.38;4979253;28;20505;-56
2023/01/08 07:33:36;;;;;;;44.83;28.93;;;14.30;60.60;;;14.16;41.60;95468.63;4980552;28;20483;-56
2023/01/08 07:36:04;;;;;;;54.67;30.27;;;14.50;60.20;;;14.41;41.49;95474.22;4977763;28;20461;-56
2023/01/08 07:38:31;;;;;;;59.50;29.00;;;14.80;59.80;;;14.71;41.00;95483.66;4981778;28;20474;-58
2023/01/08 07:40:59;;;;;;;54.07;30.90;;;15.00;59.20;;;14.94;40.62;95477.91;4970309;28;20458;-57
2023/01/08 07:43:28;;;;;;;53.87;29.07;;;15.20;58.50;;;15.03;39.94;95472.53;4979451;28;20867;-56
2023/01/08 07:45:56;;;;;;;56.00;31.10;;;15.30;56.90;;;15.09;39.77;95472.88;4981764;28;20986;-55
2023/01/08 07:48:23;;;;;;;49.80;25.97;;;15.30;56.40;;;15.14;39.41;95462.69;4980781;28;20783;-57
2023/01/08 07:50:52;;;;;;;41.07;23.67;;;15.40;55.70;;;15.25;38.78;95473.03;4978032;28;20466;-58
2023/01/08 07:53:19;;;;;;;49.67;24.33;;;15.40;54.80;;;15.39;38.64;95471.66;4976478;28;20478;-58
2023/01/08 07:55:47;;;;;;;42.27;23.67;;;15.50;54.70;;;15.53;37.84;95472.91;4979312;28;20486;-56
2023/01/08 07:58:14;;;;;;;36.67;22.00;;;15.50;53.90;;;15.64;38.13;95475.28;4980448;28;20565;-58
2023/01/08 08:00:42;;;;;;;45.33;23.60;;;15.60;53.80;;;15.75;37.71;95480.34;4975879;28;20505;-57
2023/01/08 08:03:10;;;;;;;48.07;25.27;;;15.70;53.70;;;15.82;37.48;95482.38;4971558;28;20553;-56
2023/01/08 08:05:37;;;;;;;41.80;26.13;;;15.70;52.90;;;15.90;37.56;95479.78;4977440;28;20458;-56
2023/01/08 08:08:09;;;;;;;54.80;32.77;;;15.80;53.20;;;16.01;36.95;95484.00;4977699;28;20591;-56
2023/01/08 08:10:37;;;;;;;77.77;38.70;;;15.90;52.30;;;16.06;36.69;95479.84;4978973;28;20463;-57
2023/01/08 08:13:04;;;;;;;68.40;40.37;;;15.90;52.00;;;16.12;36.88;95467.78;4981101;28;20540;-57
2023/01/08 08:15:32;;;;;;;72.70;39.33;;;16.00;52.20;;;16.21;36.90;95472.13;4978511;28;20455;-57
2023/01/08 08:17:59;;;;;;;78.77;41.87;;;16.10;52.10;;;16.40;36.39;95473.69;4978101;28;21098;-56
2023/01/08 08:20:26;;;;;;;85.20;43.40;;;16.20;51.70;;;16.64;36.27;95478.25;4981671;28;20493;-58
2023/01/08 08:23:00;;;;;;;80.33;45.40;;;16.40;51.60;;;16.87;35.94;95466.19;4977764;28;21193;-55
2023/01/08 08:25:29;;;;;;;71.90;43.57;;;16.60;51.50;;;17.05;35.82;95472.19;4980819;28;20788;-57
2023/01/08 08:27:57;;;;;;;73.63;42.70;;;16.80;51.20;;;17.25;35.45;95471.88;4977552;28;20540;-58
2023/01/08 08:30:25;;;;;;;81.93;44.43;;;17.00;50.60;;;17.42;35.58;95478.84;4978308;28;20498;-58
2023/01/08 08:32:53;;;;;;;80.13;41.57;;;17.10;50.80;;;17.64;35.01;95487.16;4976545;28;20471;-56
2023/01/08 08:35:20;;;;;;;76.50;43.63;;;17.30;50.50;;;17.85;34.34;95486.63;4979429;28;20460;-56
2023/01/08 08:37:47;;;;;;;80.97;43.03;;;17.50;49.70;;;18.02;33.89;95490.94;4978187;28;20482;-57
2023/01/08 08:40:14;;;;;;;78.90;44.57;;;17.70;49.10;;;18.13;33.31;95486.25;4981695;28;20513;-55
2023/01/08 08:42:43;;;;;;;82.43;40.73;;;17.80;47.30;;;18.21;33.86;95481.69;4982750;28;20533;-57
2023/01/08 08:45:10;;;;;;;83.17;40.20;;;17.90;48.80;;;18.28;34.11;95480.03;4981149;28;20951;-57
2023/01/08 08:47:38;;;;;;;67.90;37.77;;;18.00;48.20;;;18.34;34.18;95488.31;4977902;28;20482;-57
2023/01/08 08:50:06;;;;;;;84.60;37.47;;;18.00;47.70;;;18.37;30.55;95477.31;4981249;28;20560;-56
2023/01/08 08:52:33;;;;;;;85.13;36.07;;;18.00;44.40;;;18.33;33.78;95474.19;4982300;28;20486;-55
2023/01/08 08:55:01;;;;;;;70.43;35.70;;;18.00;47.40;;;18.35;33.14;95471.34;4982012;28;20462;-58
2023/01/08 08:57:28;;;;;;;73.80;33.80;;;18.00;47.40;;;18.40;33.44;95472.50;4975940;28;20800;-57
2023/01/08 08:59:56;;;;;;;72.13;36.50;;;18.00;47.50;;;18.48;33.01;95470.78;4982442;28;20509;-57
2023/01/08 09:02:24;;;;;;;76.90;38.77;;;18.10;46.90;;;18.54;33.68;95467.41;4980241;28;20486;-58
2023/01/08 09:04:51;;;;;;;63.93;37.07;;;18.20;47.20;;;18.63;32.90;95472.50;4985027;28;20458;-55
2023/01/08 09:07:18;;;;;;;74.03;37.73;;;18.30;46.50;;;18.74;32.57;95475.81;4983380;28;20537;-56
2023/01/08 09:09:45;;;;;;;75.63;37.70;;;18.40;46.90;;;18.86;32.15;95466.44;4983145;28;20561;-56
2023/01/08 09:12:13;;;;;;;65.83;36.53;;;18.50;46.20;;;18.92;31.94;95465.72;4981499;28;20607;-59
2023/01/08 09:14:40;;;;;;;71.73;36.53;;;18.60;45.20;;;18.92;32.48;95457.72;4979081;28;20613;-57
2023/01/08 09:17:09;;;;;;;62.93;37.67;;;18.60;46.00;;;19.01;32.20;95460.31;4979407;28;20553;-58
2023/01/08 09:19:37;;;;;;;72.57;36.60;;;18.60;46.00;;;19.10;30.93;95459.25;4980510;28;20497;-56
2023/01/08 09:22:04;;;;;;;75.03;39.43;;;18.80;44.20;;;19.17;32.48;95457.56;4979201;28;20925;-58
2023/01/08 09:24:32;;;;;;;78.83;39.63;;;18.80;45.70;;;19.25;32.32;95446.81;4984496;28;20997;-57
2023/01/08 09:26:59;;;;;;;63.70;37.33;;;18.90;45.80;;;19.38;31.84;95450.69;4986859;28;20454;-58
2023/01/08 09:29:26;;;;;;;71.00;38.20;;;19.00;45.60;;;19.49;31.87;95444.97;4983599;28;21060;-57
2023/01/08 09:31:54;;;;;;;65.57;35.50;;;19.10;44.70;;;19.58;31.70;95451.03;4978767;28;20467;-57
2023/01/08 09:34:23;;;;;;;68.30;39.40;;;19.20;45.10;;;19.73;31.79;95449.22;4985521;28;20455;-57
2023/01/08 09:36:51;;;;;;;79.53;40.53;;;19.30;45.00;;;19.79;30.77;95440.50;4983900;28;21013;-56
2023/01/08 09:39:18;;;;;;;63.07;38.40;;;19.40;43.70;;;19.84;31.05;95438.09;4982962;28;20546;-57
2023/01/08 09:41:46;;;;;;;74.50;37.63;;;19.50;44.10;;;19.99;31.78;95438.13;4987353;28;20508;-56
2023/01/08 09:44:17;;;;;;;58.97;33.77;;;19.50;44.60;;;20.21;30.70;95427.50;4981413;28;20490;-56
2023/01/08 09:46:44;;;;;;;68.93;35.90;;;19.70;44.10;;;20.36;31.03;95425.66;4984209;28;20964;-58
2023/01/08 09:49:14;;;;;;;55.73;35.43;;;19.90;44.20;;;20.53;29.67;95422.78;4983705;28;21197;-56
2023/01/08 09:51:43;;;;;;;57.70;32.30;;;20.10;43.10;;;20.67;30.59;95413.91;4979070;28;20960;-59
2023/01/08 09:54:13;;;;;;;57.97;32.30;;;20.20;43.70;;;20.81;30.52;95414.06;4987354;28;20867;-58
2023/01/08 09:56:40;;;;;;;59.20;32.63;;;20.40;43.60;;;20.98;30.19;95403.94;4986759;28;20589;-56
2023/01/08 09:59:07;;;;;;;72.13;34.70;;;20.50;43.40;;;21.19;30.47;95400.41;4978330;28;20524;-57
2023/01/08 10:01:36;;;;;;;55.20;30.87;;;20.70;43.30;;;21.44;29.96;95393.63;4985464;28;20466;-57
2023/01/08 10:04:05;;;;;;;59.93;31.93;;;20.90;43.20;;;21.65;28.15;95395.44;4976532;28;21379;-57
2023/01/08 10:06:33;;;;;;;66.93;32.93;;;21.20;40.60;;;21.66;29.14;95390.91;4980667;28;21043;-57
2023/01/08 10:09:01;;;;;;;53.27;32.23;;;21.20;41.90;;;21.77;29.36;95390.38;4980343;28;20563;-57
2023/01/08 10:11:40;;;;;;;65.07;33.60;;;21.30;42.10;;;21.97;28.98;95387.78;4985058;28;21005;-57
2023/01/08 10:14:08;;;;;;;65.30;33.20;;;21.50;41.70;;;22.13;27.26;95380.47;4978531;28;20467;-57
2023/01/08 10:16:36;;;;;;;50.90;31.67;;;21.60;39.40;;;22.08;27.36;95380.22;4982617;28;20990;-57
2023/01/08 10:19:04;;;;;;;55.10;33.00;;;21.60;39.20;;;21.99;29.25;95379.56;4977694;28;20498;-58